Time;durP1;ratioP1;P1;durP2;ratioP2;P2;SDS_P1;SDS_P2;PMS_P1;PMS_P2;Temp;Humidity;BMP_temperature;BMP_pressure;BME280_temperature;BME280_humidity;BME280_pressure;Samples;Min_cycle;Max_cycle;Signal;HPM_P1;HPM_P2
2023/08/07 00:01:08;;;;;;;16.70;5.55;;;;;;;22.92;52.35;101185.72;5114624;28;20023;-49
2023/08/07 00:03:35;;;;;;;20.17;5.72;;;;;;;22.98;51.95;101164.69;5115089;28;20565;-50
2023/08/07 00:06:01;;;;;;;14.30;5.32;;;;;;;22.70;52.93;101172.41;5112642;28;20028;-49
2023/08/07 00:08:28;;;;;;;16.75;5.38;;;;;;;22.63;53.51;101164.53;5115172;28;20045;-42
2023/08/07 00:11:05;;;;;;;16.30;5.00;;;;;;;22.68;53.12;101160.97;5114917;28;20471;-54
2023/08/07 00:13:31;;;;;;;14.35;5.60;;;;;;;22.59;53.95;101168.91;5115005;28;20027;-53
2023/08/07 00:15:57;;;;;;;18.33;5.78;;;;;;;22.55;53.33;101159.66;5114391;28;20054;-55
2023/08/07 00:18:23;;;;;;;18.38;5.70;;;;;;;22.67;53.50;101164.81;5112976;28;20031;-53
2023/08/07 00:20:50;;;;;;;14.50;5.78;;;;;;;22.51;53.71;101169.50;5114388;28;20015;-53
2023/08/07 00:23:16;;;;;;;11.00;4.80;;;;;;;22.17;54.67;101172.03;5114582;28;20069;-55
2023/08/07 00:25:42;;;;;;;15.88;5.72;;;;;;;22.35;54.23;101176.91;5114542;28;20019;-54
2023/08/07 00:28:08;;;;;;;15.18;5.57;;;;;;;22.23;54.70;101167.38;5114475;28;20102;-54
2023/08/07 00:30:34;;;;;;;17.25;6.43;;;;;;;22.02;55.18;101169.28;5114547;28;20024;-53
2023/08/07 00:33:01;;;;;;;10.75;5.00;;;;;;;22.33;54.43;101168.19;5114480;28;20024;-54
2023/08/07 00:35:27;;;;;;;12.27;5.45;;;;;;;22.34;54.41;101161.63;5112900;28;20026;-54
2023/08/07 00:37:53;;;;;;;15.90;5.10;;;;;;;22.50;53.92;101162.41;5113140;28;20046;-53
2023/08/07 00:40:20;;;;;;;16.80;5.60;;;;;;;22.11;54.92;101157.59;5111778;28;20059;-55
2023/08/07 00:42:45;;;;;;;20.05;6.45;;;;;;;;;;5113958;28;20024;-55
2023/08/07 00:45:12;;;;;;;16.83;5.68;;;;;;;21.86;55.33;101163.84;5107517;28;20046;-56
2023/08/07 00:47:38;;;;;;;17.67;5.65;;;;;;;21.72;56.32;101157.31;5113843;28;20038;-56
2023/08/07 00:50:05;;;;;;;14.63;5.93;;;;;;;21.86;56.48;101152.94;5113775;28;20032;-55
2023/08/07 00:52:32;;;;;;;17.80;5.40;;;;;;;22.08;55.84;101165.47;5113297;28;20385;-57
2023/08/07 00:54:59;;;;;;;15.05;5.70;;;;;;;21.84;55.68;101154.31;5095493;28;20034;-56
2023/08/07 00:57:26;;;;;;;13.07;4.93;;;;;;;22.03;55.65;101158.09;5113848;28;20023;-56
2023/08/07 00:59:53;;;;;;;21.60;6.90;;;;;;;21.43;56.68;101150.75;5113998;28;20023;-56
2023/08/07 01:02:19;;;;;;;19.48;7.18;;;;;;;21.48;57.20;101161.66;5110975;28;20023;-54
2023/08/07 01:04:46;;;;;;;18.52;6.00;;;;;;;21.30;58.08;101154.84;5097701;28;20034;-53
2023/08/07 01:07:12;;;;;;;17.45;6.20;;;;;;;21.31;57.49;101151.84;5113577;28;20031;-52
2023/08/07 01:09:39;;;;;;;13.85;6.05;;;;;;;21.18;58.42;101151.53;5113832;28;20046;-52
2023/08/07 01:12:19;;;;;;;13.43;6.00;;;;;;;21.00;58.62;101152.84;5110651;28;20031;-53
2023/08/07 01:14:45;;;;;;;17.92;6.95;;;;;;;20.87;59.23;101150.59;5109315;28;20024;-50
2023/08/07 01:17:18;;;;;;;21.75;6.75;;;;;;;20.60;60.41;101150.78;5110090;28;20047;-53
2023/08/07 01:19:45;;;;;;;18.83;7.10;;;;;;;20.42;61.29;101138.41;5104681;28;20012;-53
2023/08/07 01:22:14;;;;;;;11.85;5.68;;;;;;;20.46;61.40;101153.16;5092997;28;20058;-53
2023/08/07 01:24:42;;;;;;;19.80;7.75;;;;;;;19.96;62.35;101146.31;5093246;28;20028;-53
2023/08/07 01:27:17;;;;;;;18.80;7.55;;;;;;;19.89;63.23;101140.28;5112480;28;20028;-51
2023/08/07 01:30:31;;;;;;;21.83;7.22;;;;;;;19.82;64.12;101143.19;5099123;28;20534;-51
2023/08/07 01:33:32;;;;;;;22.77;7.15;;;;;;;20.07;63.49;101145.28;5104512;28;20063;-51
2023/08/07 01:36:03;;;;;;;17.15;6.93;;;;;;;19.93;63.37;101141.38;5113590;28;20063;-52
2023/08/07 01:38:30;;;;;;;21.65;6.35;;;;;;;19.88;63.48;101144.09;5113660;28;20032;-53
2023/08/07 01:40:57;;;;;;;19.15;7.35;;;;;;;19.84;63.53;101143.78;5112432;28;20103;-51
2023/08/07 01:43:24;;;;;;;16.45;7.53;;;;;;;19.84;64.18;101148.41;5113431;28;20069;-49
2023/08/07 01:45:50;;;;;;;24.02;7.63;;;;;;;20.03;62.89;101141.47;5113452;28;20020;-53
2023/08/07 01:48:16;;;;;;;26.13;7.93;;;;;;;19.54;64.34;101144.28;5112561;28;20063;-52
2023/08/07 01:50:43;;;;;;;18.63;6.43;;;;;;;19.76;64.36;101136.09;5113140;28;20460;-52
2023/08/07 01:53:09;;;;;;;22.08;7.40;;;;;;;19.51;64.98;101134.78;5111181;28;20447;-49
2023/08/07 01:55:35;;;;;;;19.23;7.60;;;;;;;19.78;64.10;101129.34;5112994;28;20019;-49
2023/08/07 01:58:02;;;;;;;20.75;7.43;;;;;;;19.55;64.97;101128.84;5113146;28;20105;-53
2023/08/07 02:00:28;;;;;;;20.40;7.82;;;;;;;19.72;64.32;101132.28;5112938;28;20067;-49
2023/08/07 02:02:55;;;;;;;18.33;6.75;;;;;;;19.62;64.99;101133.00;5112836;28;20092;-52
2023/08/07 02:05:21;;;;;;;19.63;8.13;;;;;;;19.26;65.68;101135.34;5112858;28;20403;-51
2023/08/07 02:07:48;;;;;;;24.42;7.47;;;;;;;19.46;65.74;101137.47;5111261;28;20032;-49
2023/08/07 02:10:14;;;;;;;19.17;7.15;;;;;;;19.42;65.40;101140.94;5092676;28;20027;-52
2023/08/07 02:12:41;;;;;;;19.30;7.72;;;;;;;19.39;65.39;101136.03;5106858;28;20028;-52
2023/08/07 02:15:08;;;;;;;25.98;8.93;;;;;;;19.33;65.94;101135.19;5097377;28;20032;-53
2023/08/07 02:17:35;;;;;;;18.52;7.63;;;;;;;19.33;66.11;101142.50;5092045;28;20111;-53
2023/08/07 02:20:02;;;;;;;21.23;8.00;;;;;;;19.50;65.27;101143.19;5092069;28;20047;-53
2023/08/07 02:22:28;;;;;;;23.60;9.48;;;;;;;19.78;64.31;101142.91;5091603;28;20030;-53
2023/08/07 02:24:54;;;;;;;24.67;8.70;;;;;;;19.48;65.28;101142.63;5092200;28;20023;-55
2023/08/07 02:27:20;;;;;;;23.08;7.80;;;;;;;19.45;65.79;101143.16;5106987;28;20074;-52
2023/08/07 02:29:47;;;;;;;31.45;8.15;;;;;;;19.35;65.68;101146.59;5112436;28;20028;-51
2023/08/07 02:32:13;;;;;;;24.20;7.70;;;;;;;19.57;65.19;101146.50;5112275;28;20087;-52
2023/08/07 02:34:40;;;;;;;17.42;6.55;;;;;;;19.86;63.93;101152.47;5112207;28;20043;-53
2023/08/07 02:37:06;;;;;;;20.77;6.75;;;;;;;19.72;64.17;101152.09;5110818;28;20387;-52
2023/08/07 02:39:32;;;;;;;24.80;7.72;;;;;;;19.45;64.98;101159.44;5107448;28;20100;-52
2023/08/07 02:41:59;;;;;;;19.25;6.82;;;;;;;19.45;65.30;101159.44;5100308;28;20027;-52
2023/08/07 02:44:25;;;;;;;27.00;7.90;;;;;;;18.72;68.05;101164.34;5112355;28;20160;-50
2023/08/07 02:46:51;;;;;;;25.63;8.10;;;;;;;18.96;67.38;101159.47;5111345;28;20031;-50
2023/08/07 02:49:17;;;;;;;19.05;7.70;;;;;;;18.69;68.76;101160.22;5112321;28;20063;-53
2023/08/07 02:51:44;;;;;;;25.48;8.63;;;;;;;18.55;69.03;101158.13;5111789;28;20122;-52
2023/08/07 02:54:10;;;;;;;24.95;8.20;;;;;;;18.62;68.84;101161.47;5111853;28;20028;-53
2023/08/07 02:56:39;;;;;;;26.27;8.15;;;;;;;18.65;69.02;101166.38;5111853;28;20555;-53
2023/08/07 02:59:06;;;;;;;23.58;8.48;;;;;;;18.53;69.39;101157.53;5111916;28;20361;-52
2023/08/07 03:01:32;;;;;;;16.10;7.82;;;;;;;18.57;69.42;101154.09;5111861;28;20118;-51
2023/08/07 03:03:58;;;;;;;26.13;8.25;;;;;;;18.23;70.96;101160.66;5111046;28;20028;-52
2023/08/07 03:06:24;;;;;;;27.52;8.82;;;;;;;18.36;70.24;101163.00;5111443;28;20383;-52
2023/08/07 03:08:51;;;;;;;24.60;9.32;;;;;;;18.37;70.59;101157.31;5111738;28;20020;-52
2023/08/07 03:11:17;;;;;;;20.77;8.30;;;;;;;18.27;71.03;101156.41;5111425;28;20077;-53
2023/08/07 03:13:44;;;;;;;26.70;8.20;;;;;;;18.05;71.50;101159.06;5099578;28;20036;-51
2023/08/07 03:16:10;;;;;;;27.85;7.82;;;;;;;18.21;71.30;101158.19;5112181;28;20487;-52
2023/08/07 03:18:36;;;;;;;25.77;9.27;;;;;;;18.05;71.81;101164.47;5089919;28;20425;-53
2023/08/07 03:21:03;;;;;;;26.10;8.23;;;;;;;17.96;72.42;101161.34;5102461;28;20012;-52
2023/08/07 03:23:29;;;;;;;22.98;8.20;;;;;;;17.93;72.12;101151.00;5116170;28;20031;-52
2023/08/07 03:26:09;;;;;;;23.42;8.38;;;;;;;18.06;71.69;101152.56;5116162;28;20027;-53
2023/08/07 03:28:36;;;;;;;22.58;8.32;;;;;;;17.86;72.38;101150.34;5115726;28;20068;-52
2023/08/07 03:31:03;;;;;;;24.65;8.65;;;;;;;17.97;72.09;101149.44;5115595;28;20028;-52
2023/08/07 03:33:29;;;;;;;19.35;8.35;;;;;;;18.02;71.69;101152.22;5115712;28;20016;-51
2023/08/07 03:35:55;;;;;;;27.77;9.15;;;;;;;18.00;71.62;101157.09;5115552;28;20023;-52
2023/08/07 03:38:22;;;;;;;24.60;8.77;;;;;;;18.04;71.80;101154.69;5115388;28;20019;-52
2023/08/07 03:40:48;;;;;;;26.33;7.93;;;;;;;17.93;71.96;101159.13;5115262;28;20393;-52
2023/08/07 03:43:14;;;;;;;22.58;8.40;;;;;;;17.88;72.31;101164.47;5115218;28;20034;-53
2023/08/07 03:45:41;;;;;;;24.60;8.40;;;;;;;17.83;72.37;101161.69;5115437;28;20024;-52
2023/08/07 03:48:07;;;;;;;14.27;7.22;;;;;;;17.90;72.05;101152.31;5115475;28;20034;-52
2023/08/07 03:50:39;;;;;;;27.30;8.23;;;;;;;18.00;72.04;101167.91;5115216;28;20020;-52
2023/08/07 03:53:07;;;;;;;22.42;8.48;;;;;;;17.96;71.93;101161.34;5113932;28;20088;-52
2023/08/07 03:55:33;;;;;;;22.52;8.93;;;;;;;18.00;72.05;101167.91;5114156;28;20059;-52
2023/08/07 03:58:00;;;;;;;23.08;8.00;;;;;;;18.04;71.89;101168.22;5112709;28;20031;-52
2023/08/07 04:00:26;;;;;;;17.13;7.35;;;;;;;18.09;71.25;101169.13;5112673;28;20107;-53
2023/08/07 04:02:52;;;;;;;27.65;8.05;;;;;;;18.16;70.85;101177.91;5114382;28;20046;-53
2023/08/07 04:05:18;;;;;;;18.13;8.02;;;;;;;18.12;70.99;101181.38;5115164;28;20023;-52
2023/08/07 04:07:45;;;;;;;23.83;8.32;;;;;;;17.88;71.54;101186.97;5115002;28;20487;-53
2023/08/07 04:10:11;;;;;;;25.48;7.95;;;;;;;17.87;71.66;101185.28;5115097;28;20019;-53
2023/08/07 04:12:38;;;;;;;20.77;8.43;;;;;;;17.81;72.08;101182.75;5114171;28;20055;-53
2023/08/07 04:15:04;;;;;;;18.83;7.55;;;;;;;17.87;72.13;101187.19;5097830;28;20411;-53
2023/08/07 04:17:31;;;;;;;18.00;8.27;;;;;;;17.80;72.12;101184.63;5115013;28;20032;-51
2023/08/07 04:19:57;;;;;;;25.48;9.32;;;;;;;17.87;71.87;101187.19;5115232;28;20031;-53
2023/08/07 04:22:23;;;;;;;20.73;8.32;;;;;;;18.04;71.28;101179.06;5115000;28;20019;-53
2023/08/07 04:24:49;;;;;;;24.65;7.90;;;;;;;18.00;71.63;101183.34;5114907;28;20028;-52
2023/08/07 04:27:15;;;;;;;18.38;8.23;;;;;;;17.89;72.68;101191.31;5114577;28;20019;-51
2023/08/07 04:29:42;;;;;;;23.13;8.38;;;;;;;17.84;72.94;101188.50;5114196;28;20023;-49
2023/08/07 04:32:08;;;;;;;20.52;8.02;;;;;;;17.96;72.40;101195.72;5114690;28;20024;-53
2023/08/07 04:34:35;;;;;;;21.52;7.80;;;;;;;18.05;72.10;101189.66;5114675;28;20468;-53
2023/08/07 04:37:01;;;;;;;24.08;8.43;;;;;;;18.07;72.61;101189.41;5114761;28;20525;-50
2023/08/07 04:39:27;;;;;;;21.15;8.23;;;;;;;18.22;72.07;101195.06;5114628;28;20431;-51
2023/08/07 04:41:53;;;;;;;22.42;8.05;;;;;;;18.16;72.38;101201.47;5114814;28;20380;-50
2023/08/07 04:44:20;;;;;;;20.45;7.78;;;;;;;18.25;72.18;101202.69;5114111;28;20368;-50
2023/08/07 04:46:46;;;;;;;25.65;8.63;;;;;;;18.13;72.76;101202.78;5114685;28;20031;-49
2023/08/07 04:49:13;;;;;;;31.90;8.23;;;;;;;18.10;72.75;101206.00;5096269;28;20028;-51
2023/08/07 04:51:39;;;;;;;20.35;7.53;;;;;;;18.09;73.48;101207.03;5114310;28;20032;-52
2023/08/07 04:54:05;;;;;;;28.55;8.38;;;;;;;17.93;74.00;101206.00;5110918;28;20032;-50
2023/08/07 04:56:31;;;;;;;24.17;9.18;;;;;;;17.91;74.56;101204.59;5100455;28;20070;-52
2023/08/07 04:58:58;;;;;;;26.80;8.90;;;;;;;17.90;74.29;101205.66;5113828;28;20080;-53
2023/08/07 05:01:24;;;;;;;23.23;7.60;;;;;;;18.13;73.35;101204.66;5100255;27;20024;-51
2023/08/07 05:03:50;;;;;;;23.98;8.23;;;;;;;18.01;73.60;101212.06;5110213;28;20088;-50
2023/08/07 05:06:16;;;;;;;24.70;8.32;;;;;;;17.89;73.98;101206.72;5113938;28;20035;-53
2023/08/07 05:08:43;;;;;;;24.95;8.60;;;;;;;17.95;73.48;101205.75;5113546;28;20034;-52
2023/08/07 05:11:09;;;;;;;20.73;8.75;;;;;;;17.94;73.18;101202.22;5074832;28;20414;-50
2023/08/07 05:13:35;;;;;;;23.10;7.97;;;;;;;17.92;72.90;101198.09;5106733;28;20375;-53
2023/08/07 05:16:01;;;;;;;19.75;8.18;;;;;;;18.02;72.63;101206.41;5113561;28;20576;-52
2023/08/07 05:18:28;;;;;;;35.72;9.57;;;;;;;17.91;73.42;101207.28;5113523;28;20023;-50
2023/08/07 05:20:54;;;;;;;31.35;8.98;;;;;;;17.84;74.04;101202.06;5112693;28;20054;-49
2023/08/07 05:23:20;;;;;;;26.75;8.68;;;;;;;17.85;74.36;101206.38;5113600;28;20026;-51
2023/08/07 05:25:47;;;;;;;20.58;9.35;;;;;;;17.89;74.13;101202.13;5113398;28;20027;-52
2023/08/07 05:28:13;;;;;;;21.83;7.68;;;;;;;18.03;74.01;101202.63;5113509;28;20028;-52
2023/08/07 05:30:40;;;;;;;19.27;8.00;;;;;;;17.83;74.73;101197.69;5113285;28;20046;-52
2023/08/07 05:33:06;;;;;;;17.05;8.20;;;;;;;17.88;74.93;101196.97;5113337;28;20042;-52
2023/08/07 05:35:32;;;;;;;24.05;8.52;;;;;;;17.97;74.78;101190.06;5113134;28;20379;-53
2023/08/07 05:37:58;;;;;;;29.55;9.13;;;;;;;17.81;75.70;101204.41;5112915;28;20456;-52
2023/08/07 05:40:25;;;;;;;19.98;8.65;;;;;;;17.75;76.42;101199.97;5112790;28;20098;-53
2023/08/07 05:42:51;;;;;;;22.13;8.20;;;;;;;17.81;76.29;101212.53;5113121;28;20584;-53
2023/08/07 05:45:17;;;;;;;24.98;9.10;;;;;;;17.70;76.63;101206.09;5113178;28;20083;-53
2023/08/07 05:47:43;;;;;;;24.75;8.07;;;;;;;17.92;75.65;101203.50;5113719;28;20028;-50
2023/08/07 05:50:10;;;;;;;21.42;8.07;;;;;;;17.89;75.76;101198.59;5097667;28;20024;-52
2023/08/07 05:52:36;;;;;;;27.48;8.10;;;;;;;17.96;75.31;101204.69;5092618;28;20059;-53
2023/08/07 05:55:04;;;;;;;24.02;8.85;;;;;;;17.83;75.40;101205.00;5092515;28;20028;-52
2023/08/07 05:57:30;;;;;;;25.20;9.02;;;;;;;17.86;75.57;101199.91;5106221;28;20495;-52
2023/08/07 05:59:56;;;;;;;27.30;8.50;;;;;;;17.74;75.35;101201.88;5112888;28;20475;-52
2023/08/07 06:02:22;;;;;;;26.92;9.65;;;;;;;17.81;74.88;101201.72;5112467;28;20024;-51
2023/08/07 06:04:49;;;;;;;25.70;8.73;;;;;;;17.55;76.64;101203.97;5112028;28;20494;-49
2023/08/07 06:07:15;;;;;;;21.30;8.57;;;;;;;17.58;75.97;101198.03;5112751;28;20024;-47
2023/08/07 06:09:41;;;;;;;21.45;8.40;;;;;;;17.73;75.28;101200.22;5112452;28;20051;-50
2023/08/07 06:12:08;;;;;;;25.15;8.98;;;;;;;17.74;75.21;101203.75;5112298;28;20016;-51
2023/08/07 06:14:34;;;;;;;24.98;8.43;;;;;;;17.68;75.34;101200.94;5112310;28;20015;-49
2023/08/07 06:17:01;;;;;;;21.23;8.38;;;;;;;17.42;76.41;101202.34;5112446;28;20036;-50
2023/08/07 06:19:30;;;;;;;23.85;8.02;;;;;;;17.47;76.05;101200.81;5112379;28;20043;-52
2023/08/07 06:21:56;;;;;;;26.30;8.60;;;;;;;17.61;76.04;101200.28;5110492;28;20032;-53
2023/08/07 06:24:22;;;;;;;25.90;9.02;;;;;;;17.68;75.89;101206.34;5112597;28;20399;-53
2023/08/07 06:26:50;;;;;;;25.42;8.80;;;;;;;17.67;75.43;101206.59;5111285;28;20084;-51
2023/08/07 06:29:16;;;;;;;23.85;8.30;;;;;;;17.62;75.17;101199.19;5112435;28;20077;-52
2023/08/07 06:31:43;;;;;;;29.20;9.23;;;;;;;17.67;75.54;101202.00;5111937;28;20065;-53
2023/08/07 06:34:09;;;;;;;28.67;8.70;;;;;;;17.54;75.69;101196.88;5112445;28;20022;-52
2023/08/07 06:36:35;;;;;;;19.30;8.63;;;;;;;17.47;76.69;101198.94;5106905;28;20070;-53
2023/08/07 06:39:03;;;;;;;24.00;8.20;;;;;;;17.44;76.59;101204.84;5112208;28;20483;-52
2023/08/07 06:41:30;;;;;;;28.30;9.10;;;;;;;17.33;76.76;101211.13;5111885;28;20015;-53
2023/08/07 06:43:56;;;;;;;29.50;9.18;;;;;;;17.52;76.24;101204.44;5093720;28;20366;-49
2023/08/07 06:46:26;;;;;;;28.95;9.20;;;;;;;17.49;76.55;101199.53;5109674;28;20042;-48
2023/08/07 06:48:52;;;;;;;21.52;8.65;;;;;;;17.26;77.74;101210.41;5107960;28;20032;-51
2023/08/07 06:51:19;;;;;;;22.35;8.50;;;;;;;17.42;77.41;101210.47;5090804;28;20472;-51
2023/08/07 06:53:45;;;;;;;21.98;8.85;;;;;;;17.42;77.05;101209.66;5091716;28;20067;-51
2023/08/07 06:56:11;;;;;;;27.60;9.70;;;;;;;17.27;77.79;101207.50;5110604;28;20031;-51
2023/08/07 06:58:37;;;;;;;33.25;9.82;;;;;;;17.29;77.31;101210.78;5112154;28;20032;-49
2023/08/07 07:01:04;;;;;;;19.90;8.07;;;;;;;17.26;77.82;101216.66;5111595;28;20032;-49
2023/08/07 07:03:30;;;;;;;24.50;8.30;;;;;;;17.33;77.19;101217.34;5112111;28;20051;-50
2023/08/07 07:05:56;;;;;;;24.48;8.98;;;;;;;17.32;76.95;101212.16;5111890;28;20473;-50
2023/08/07 07:08:23;;;;;;;27.10;9.27;;;;;;;17.39;77.13;101221.78;5112083;28;20114;-48
2023/08/07 07:10:49;;;;;;;18.73;8.40;;;;;;;17.20;77.87;101222.22;5111533;28;20472;-49
2023/08/07 07:13:15;;;;;;;22.83;8.52;;;;;;;17.19;77.61;101226.81;5111854;28;20092;-51
2023/08/07 07:15:42;;;;;;;26.08;8.63;;;;;;;17.24;78.10;101224.19;5111585;28;20135;-51
2023/08/07 07:18:08;;;;;;;23.63;9.25;;;;;;;17.30;77.80;101227.81;5111886;28;20503;-50
2023/08/07 07:20:34;;;;;;;23.33;8.45;;;;;;;17.37;77.92;101228.50;5111398;28;20042;-50
2023/08/07 07:23:01;;;;;;;33.00;10.18;;;;;;;17.38;77.64;101230.16;5111643;28;20020;-52
2023/08/07 07:25:27;;;;;;;24.48;8.35;;;;;;;17.32;78.12;101225.69;5104780;28;20065;-52
2023/08/07 07:27:53;;;;;;;25.42;8.77;;;;;;;17.19;78.48;101225.97;5098757;28;20024;-48
2023/08/07 07:30:20;;;;;;;25.85;9.48;;;;;;;17.00;78.79;101228.88;5111256;28;20034;-51
2023/08/07 07:32:46;;;;;;;21.02;8.18;;;;;;;16.92;79.54;101231.09;5111677;28;20507;-51
2023/08/07 07:35:13;;;;;;;20.83;8.82;;;;;;;16.84;79.62;101230.44;5111886;28;20040;-51
2023/08/07 07:37:39;;;;;;;21.90;9.15;;;;;;;17.01;78.74;101227.81;5108324;28;20024;-52
2023/08/07 07:40:06;;;;;;;26.40;9.05;;;;;;;17.03;78.61;101228.38;5111657;28;20024;-50
2023/08/07 07:42:32;;;;;;;36.40;9.88;;;;;;;16.95;79.29;101223.34;5111520;28;20028;-49
2023/08/07 07:44:58;;;;;;;31.35;9.70;;;;;;;17.00;78.92;101225.34;5111506;28;20020;-50
2023/08/07 07:47:25;;;;;;;23.63;8.35;;;;;;;16.92;79.16;101218.41;5111751;28;20027;-52
2023/08/07 07:50:08;;;;;;;22.17;8.35;;;;;;;16.91;79.57;101214.06;5111704;28;20023;-51
2023/08/07 07:52:34;;;;;;;30.98;10.02;;;;;;;16.82;79.87;101229.00;5109600;28;20023;-49
2023/08/07 07:55:01;;;;;;;35.47;10.23;;;;;;;16.69;80.41;101221.13;5111293;28;20479;-48
2023/08/07 07:57:27;;;;;;;32.65;10.35;;;;;;;16.76;80.42;101227.25;5111394;28;20533;-48
2023/08/07 07:59:53;;;;;;;30.67;10.20;;;;;;;16.76;79.77;101224.56;5111505;28;20441;-52
2023/08/07 08:02:19;;;;;;;26.23;8.70;;;;;;;16.78;80.08;101230.56;5111816;28;20480;-50
2023/08/07 08:04:46;;;;;;;31.20;9.27;;;;;;;16.78;79.54;101227.84;5113336;28;20092;-48
2023/08/07 08:07:12;;;;;;;19.15;9.27;;;;;;;16.76;79.66;101225.38;5114657;28;20490;-47
2023/08/07 08:09:38;;;;;;;24.98;9.20;;;;;;;16.61;80.28;101219.63;5114978;28;20027;-46
2023/08/07 08:12:05;;;;;;;27.92;9.55;;;;;;;16.62;80.21;101216.69;5114539;28;20070;-49
2023/08/07 08:14:31;;;;;;;26.40;8.70;;;;;;;16.42;81.09;101218.91;5114789;28;20102;-49
2023/08/07 08:16:58;;;;;;;30.30;9.52;;;;;;;16.55;80.71;101218.69;5114630;28;20047;-50
2023/08/07 08:19:24;;;;;;;28.42;9.93;;;;;;;16.42;80.92;101220.78;5115318;28;20069;-48
2023/08/07 08:21:50;;;;;;;28.42;8.95;;;;;;;16.41;81.29;101209.16;5114923;28;20028;-49
2023/08/07 08:24:16;;;;;;;34.80;10.00;;;;;;;16.44;81.24;101216.81;5113623;28;20019;-49
2023/08/07 08:26:43;;;;;;;37.25;10.90;;;;;;;16.27;82.00;101213.19;5112738;28;20024;-49
2023/08/07 08:29:09;;;;;;;32.58;10.00;;;;;;;16.10;82.69;101213.03;5113250;28;20042;-51
2023/08/07 08:31:35;;;;;;;30.85;10.27;;;;;;;16.12;82.64;101207.41;5114325;28;20499;-52
2023/08/07 08:34:02;;;;;;;34.60;9.40;;;;;;;16.22;82.27;101200.38;5114466;28;20031;-52
2023/08/07 08:36:29;;;;;;;29.70;9.93;;;;;;;16.03;83.16;101207.75;5114323;28;20023;-52
2023/08/07 08:38:55;;;;;;;27.27;10.55;;;;;;;16.18;82.39;101204.59;5114392;28;20468;-52
2023/08/07 08:41:21;;;;;;;34.80;9.95;;;;;;;16.08;83.09;101198.94;5114158;28;20027;-49
2023/08/07 08:43:52;;;;;;;41.10;11.32;;;;;;;16.02;83.38;101197.19;5114304;28;20102;-52
2023/08/07 08:46:24;;;;;;;33.03;9.60;;;;;;;16.15;82.94;101201.53;5112994;28;20069;-48
2023/08/07 08:48:57;;;;;;;28.15;9.25;;;;;;;15.95;83.78;101204.56;5114248;28;20023;-52
2023/08/07 08:51:25;;;;;;;31.52;9.48;;;;;;;16.06;83.65;101201.06;5101541;28;20546;-51
2023/08/07 08:53:56;;;;;;;27.45;9.07;;;;;;;16.09;83.18;101195.19;5093650;28;20028;-48
2023/08/07 08:56:23;;;;;;;24.73;9.85;;;;;;;15.98;84.00;101196.00;5106389;28;20051;-52
2023/08/07 08:58:51;;;;;;;30.73;9.85;;;;;;;16.01;83.85;101193.66;5114155;28;20486;-49
2023/08/07 09:01:18;;;;;;;32.42;9.80;;;;;;;16.18;83.13;101198.38;5112948;28;20039;-51
2023/08/07 09:03:45;;;;;;;31.95;9.75;;;;;;;16.08;83.89;101197.06;5113842;28;20034;-49
2023/08/07 09:06:13;;;;;;;32.67;9.52;;;;;;;16.05;83.67;101194.84;5114100;28;20476;-53
2023/08/07 09:08:42;;;;;;;26.85;9.15;;;;;;;16.05;83.95;101197.53;5113884;28;20479;-49
2023/08/07 09:11:10;;;;;;;26.73;9.35;;;;;;;16.13;83.57;101198.25;5113821;28;20031;-49
2023/08/07 09:13:43;;;;;;;31.60;9.55;;;;;;;16.04;83.76;101197.75;5113393;28;20031;-52
2023/08/07 09:16:11;;;;;;;25.90;10.13;;;;;;;15.97;84.18;101192.47;5113332;28;20036;-52
2023/08/07 09:18:37;;;;;;;29.13;9.88;;;;;;;16.03;84.09;101186.13;5111058;28;20081;-52
2023/08/07 09:21:04;;;;;;;28.95;9.68;;;;;;;15.86;84.88;101174.38;5113662;28;20049;-52
2023/08/07 09:23:31;;;;;;;34.88;10.57;;;;;;;15.80;85.33;101176.13;5113481;28;20032;-51
2023/08/07 09:26:04;;;;;;;25.95;9.20;;;;;;;15.72;85.79;101179.19;5113738;28;20016;-49
2023/08/07 09:28:32;;;;;;;27.58;9.00;;;;;;;15.62;86.63;101169.97;5113549;28;20053;-50
2023/08/07 09:31:01;;;;;;;28.13;9.90;;;;;;;15.94;84.58;101181.34;5113117;28;20024;-48
2023/08/07 09:33:29;;;;;;;32.33;9.90;;;;;;;15.94;84.38;101182.16;5111983;28;20060;-48
2023/08/07 09:36:00;;;;;;;31.92;9.82;;;;;;;15.56;86.96;101175.25;5110954;28;20031;-50
2023/08/07 09:38:32;;;;;;;29.45;9.70;;;;;;;15.76;85.67;101177.66;5113230;28;20023;-49
2023/08/07 09:41:03;;;;;;;24.77;9.60;;;;;;;15.77;85.47;101165.00;5112980;28;20352;-46
2023/08/07 09:43:29;;;;;;;43.65;11.65;;;;;;;15.48;87.01;101172.84;5113096;28;20110;-48
2023/08/07 09:46:06;;;;;;;28.48;9.68;;;;;;;15.61;86.55;101171.84;5110664;28;20031;-50
2023/08/07 09:48:38;;;;;;;32.13;9.95;;;;;;;15.62;86.18;101168.09;5113261;28;20020;-48
2023/08/07 09:51:05;;;;;;;36.70;11.05;;;;;;;15.50;86.90;101170.78;5109997;28;20078;-52
2023/08/07 09:53:31;;;;;;;31.85;10.10;;;;;;;15.66;86.38;101168.50;5112897;28;20034;-49
2023/08/07 09:55:58;;;;;;;33.13;9.10;;;;;;;15.67;86.14;101162.88;5110479;28;20077;-53
2023/08/07 09:58:25;;;;;;;27.58;9.63;;;;;;;15.86;85.42;101160.88;5113108;28;20055;-52
2023/08/07 10:00:59;;;;;;;25.50;9.75;;;;;;;15.87;84.96;101165.22;5112536;28;20027;-52
2023/08/07 10:03:26;;;;;;;44.42;10.55;;;;;;;15.69;85.75;101168.84;5112776;28;20035;-52
2023/08/07 10:05:52;;;;;;;26.55;9.15;;;;;;;15.74;86.07;101157.34;5110150;28;20027;-52
2023/08/07 10:08:19;;;;;;;26.98;9.30;;;;;;;15.78;85.73;101156.66;5110091;28;20035;-53
2023/08/07 10:10:46;;;;;;;29.73;8.82;;;;;;;15.91;85.08;101158.31;5112383;28;20379;-53
2023/08/07 10:13:14;;;;;;;26.00;8.77;;;;;;;15.97;84.88;101168.19;5112731;28;20034;-50
2023/08/07 10:15:42;;;;;;;28.02;9.55;;;;;;;15.79;85.24;101166.41;5112535;28;20044;-52
2023/08/07 10:18:09;;;;;;;27.15;9.70;;;;;;;15.69;85.69;101171.53;5110020;28;20038;-52
2023/08/07 10:20:37;;;;;;;28.80;9.05;;;;;;;15.78;85.93;101172.84;5112262;28;20019;-53
2023/08/07 10:23:11;;;;;;;28.80;9.15;;;;;;;15.72;86.28;101179.19;5111091;28;20054;-50
2023/08/07 10:25:43;;;;;;;31.17;10.07;;;;;;;15.73;86.75;101180.00;5111754;28;20031;-47
2023/08/07 10:28:16;;;;;;;27.52;9.55;;;;;;;15.88;86.13;101176.84;5111323;28;20065;-47
2023/08/07 10:30:43;;;;;;;28.65;9.82;;;;;;;15.47;88.57;101190.09;5111189;28;20032;-48
2023/08/07 10:33:12;;;;;;;27.63;8.80;;;;;;;15.46;89.09;101185.75;5112252;28;20486;-50
2023/08/07 10:35:49;;;;;;;31.27;10.57;;;;;;;15.51;89.05;101177.81;5112340;28;20024;-47
2023/08/07 10:38:18;;;;;;;25.65;9.02;;;;;;;15.58;87.63;101173.13;5110254;28;20043;-47
2023/08/07 10:41:14;;;;;;;29.05;9.05;;;;;;;15.62;87.71;101183.47;5112068;28;20384;-48
2023/08/07 10:43:44;;;;;;;;;;;;;;;15.73;87.42;101180.00;5110668;28;20035;-49
2023/08/07 10:46:13;;;;;;;26.60;9.90;;;;;;;15.77;86.51;101181.19;5112157;28;19990;-49
2023/08/07 10:48:46;;;;;;;33.80;9.32;;;;;;;15.93;85.52;101171.56;5110936;28;20027;-47
2023/08/07 10:51:14;;;;;;;42.65;11.15;;;;;;;15.72;86.52;101167.56;5111439;28;20140;-49
2023/08/07 10:53:44;;;;;;;27.40;10.13;;;;;;;15.74;86.58;101144.69;5111812;28;20483;-50
2023/08/07 10:56:30;;;;;;;32.78;10.00;;;;;;;15.66;87.55;101145.03;5111295;28;20037;-49
2023/08/07 10:58:56;;;;;;;37.22;10.18;;;;;;;15.55;88.28;101149.31;5110796;28;20034;-49
2023/08/07 11:01:28;;;;;;;28.98;8.70;;;;;;;15.51;88.55;101139.22;5111679;28;20032;-50
2023/08/07 11:03:56;;;;;;;30.45;8.68;;;;;;;15.42;89.00;101146.81;5111944;28;20031;-50
2023/08/07 11:06:28;;;;;;;25.42;8.80;;;;;;;15.39;89.30;101147.28;5111286;28;20050;-47
2023/08/07 11:08:55;;;;;;;25.27;8.80;;;;;;;15.48;88.90;101148.56;5110800;28;20036;-48
2023/08/07 11:11:21;;;;;;;28.33;8.88;;;;;;;15.48;88.40;101151.28;5111752;28;20494;-46
2023/08/07 11:13:47;;;;;;;31.27;9.52;;;;;;;15.62;87.70;101145.69;5111972;28;20035;-50
2023/08/07 11:16:14;;;;;;;24.10;9.05;;;;;;;15.58;87.81;101148.84;5111620;28;20504;-50
2023/08/07 11:18:42;;;;;;;24.33;9.40;;;;;;;15.56;88.26;101150.97;5110522;28;20088;-50